Time;durP1;ratioP1;P1;durP2;ratioP2;P2;SDS_P1;SDS_P2;PMS_P1;PMS_P2;Temp;Humidity;BMP_temperature;BMP_pressure;BME280_temperature;BME280_humidity;BME280_pressure;Samples;Min_cycle;Max_cycle;Signal;HPM_P1;HPM_P2
2022/03/12 00:01:29;;;;;;;;;8.00;5.00;;;;;-146.03;100.00;60875.16;5014642;28;46814;-83
2022/03/12 00:03:54;;;;;;;;;8.50;5.75;;;;;-146.03;100.00;60875.16;5015246;28;45440;-83
2022/03/12 00:06:21;;;;;;;;;6.00;3.00;;;;;-146.03;100.00;60875.16;5006854;28;45472;-83
2022/03/12 00:08:47;;;;;;;;;10.50;10.50;;;;;-146.03;100.00;60875.16;5007931;28;45584;-82
2022/03/12 00:11:15;;;;;;;;;21.25;20.75;;;;;-146.03;100.00;60875.16;4994177;28;47200;-82
2022/03/12 00:13:41;;;;;;;;;8.50;8.50;;;;;-146.03;100.00;60875.16;5013081;28;45630;-82
2022/03/12 00:16:13;;;;;;;;;8.00;8.00;;;;;-146.03;100.00;60875.16;5012471;28;45571;-82
2022/03/12 00:18:41;;;;;;;;;11.00;10.25;;;;;-146.03;100.00;60875.16;5014330;28;45418;-81
2022/03/12 00:21:07;;;;;;;;;8.00;6.25;;;;;-146.03;100.00;60875.16;5011348;28;47479;-82
2022/03/12 00:23:33;;;;;;;;;6.00;6.00;;;;;-146.03;100.00;60875.16;5014526;28;45530;-81
2022/03/12 00:25:59;;;;;;;;;5.50;5.25;;;;;-146.03;100.00;60875.16;5013169;28;45596;-81
2022/03/12 00:28:25;;;;;;;;;9.25;8.00;;;;;-146.03;100.00;60875.16;5014057;28;45370;-82
2022/03/12 00:30:51;;;;;;;;;6.00;6.00;;;;;-146.03;100.00;60875.16;5010705;28;46070;-83
2022/03/12 00:33:18;;;;;;;;;8.00;6.25;;;;;-146.03;100.00;60875.16;5009861;28;45578;-82
2022/03/12 00:35:47;;;;;;;;;5.75;4.00;;;;;-146.03;100.00;60875.16;4993400;28;45387;-82
2022/03/12 00:38:12;;;;;;;;;5.00;3.75;;;;;-146.03;100.00;60875.16;5012425;28;46195;-82
2022/03/12 00:40:38;;;;;;;;;12.50;12.25;;;;;-146.03;100.00;60875.16;5014782;28;46337;-83
2022/03/12 00:43:04;;;;;;;;;8.25;8.00;;;;;-146.03;100.00;60875.16;5010196;28;45549;-82
2022/03/12 00:45:29;;;;;;;;;6.25;6.25;;;;;-146.03;100.00;60875.16;4981864;28;45709;-83
2022/03/12 00:47:55;;;;;;;;;9.50;7.50;;;;;-146.03;100.00;60875.16;5009191;28;45460;-82
2022/03/12 00:50:20;;;;;;;;;6.25;5.00;;;;;-146.03;100.00;60875.16;5011113;28;45948;-82
2022/03/12 00:52:46;;;;;;;;;6.00;4.50;;;;;-146.03;100.00;60875.16;5011896;28;45552;-83
2022/03/12 00:55:11;;;;;;;;;3.50;3.00;;;;;-146.03;100.00;60875.16;5010396;28;45509;-82
2022/03/12 00:57:36;;;;;;;;;4.75;4.75;;;;;-146.03;100.00;60875.16;5009266;28;45477;-82
2022/03/12 01:00:03;;;;;;;;;4.00;2.50;;;;;-146.03;100.00;60875.16;5013651;28;45493;-81
2022/03/12 01:02:31;;;;;;;;;7.75;7.75;;;;;-146.03;100.00;60875.16;5011978;28;45472;-81
2022/03/12 01:04:56;;;;;;;;;6.50;5.25;;;;;-146.03;100.00;60875.16;5011893;28;46500;-82
2022/03/12 01:07:22;;;;;;;;;7.00;4.00;;;;;-146.03;100.00;60875.16;5009629;28;45451;-82
2022/03/12 01:09:47;;;;;;;;;5.25;5.00;;;;;-146.03;100.00;60875.16;5012389;28;46613;-82
2022/03/12 01:12:13;;;;;;;;;5.50;5.25;;;;;-146.03;100.00;60875.16;5010299;28;45524;-83
2022/03/12 01:14:39;;;;;;;;;5.50;5.50;;;;;-146.03;100.00;60875.16;5010368;28;45533;-83
2022/03/12 01:17:06;;;;;;;;;9.25;8.25;;;;;-146.03;100.00;60875.16;5008123;28;45579;-82
2022/03/12 01:19:35;;;;;;;;;8.50;7.75;;;;;-146.03;100.00;60875.16;5015727;28;45342;-83
2022/03/12 01:22:05;;;;;;;;;5.00;3.75;;;;;-146.03;100.00;60875.16;5012697;28;45466;-83
2022/03/12 01:24:30;;;;;;;;;8.00;7.00;;;;;-146.03;100.00;60875.16;5008841;28;45579;-82
2022/03/12 01:26:56;;;;;;;;;2.00;2.00;;;;;-146.03;100.00;60875.16;5009394;28;45495;-82
2022/03/12 01:29:23;;;;;;;;;2.50;2.50;;;;;-146.03;100.00;60875.16;5007733;28;45571;-82
2022/03/12 01:31:49;;;;;;;;;5.00;3.00;;;;;-146.03;100.00;60875.16;5012042;28;45481;-81
2022/03/12 01:34:14;;;;;;;;;7.00;5.50;;;;;-146.03;100.00;60875.16;5013968;28;45344;-82
2022/03/12 01:36:39;;;;;;;;;5.00;4.25;;;;;-146.03;100.00;60875.16;5011296;28;50302;-81
2022/03/12 01:39:05;;;;;;;;;5.25;5.00;;;;;-146.03;100.00;60875.16;5010148;28;45722;-82
2022/03/12 01:41:33;;;;;;;;;6.00;5.75;;;;;-146.03;100.00;60875.16;5007814;28;45829;-82
2022/03/12 01:44:00;;;;;;;;;5.00;5.00;;;;;-146.03;100.00;60875.16;5005165;28;45585;-82
2022/03/12 01:46:35;;;;;;;;;3.75;3.75;;;;;-146.03;100.00;60875.16;5009930;28;45565;-82
2022/03/12 01:49:13;;;;;;;;;4.00;4.00;;;;;-146.03;100.00;60875.16;5006727;28;46321;-81
2022/03/12 01:51:42;;;;;;;;;4.25;3.75;;;;;-146.03;100.00;60875.16;5003234;28;45433;-83
2022/03/12 01:54:08;;;;;;;;;3.50;3.50;;;;;-146.03;100.00;60875.16;5008573;28;45727;-82
2022/03/12 01:56:34;;;;;;;;;3.00;3.00;;;;;-146.03;100.00;60875.16;5011111;28;46010;-82
2022/03/12 01:59:01;;;;;;;;;3.50;3.25;;;;;-146.03;100.00;60875.16;5007489;28;45770;-83
2022/03/12 02:01:30;;;;;;;;;3.00;3.00;;;;;-146.03;100.00;60875.16;5009699;28;45426;-82
2022/03/12 02:03:58;;;;;;;;;3.25;3.25;;;;;-146.03;100.00;60875.16;5010922;28;45700;-82
2022/03/12 02:06:24;;;;;;;;;2.50;2.50;;;;;-146.03;100.00;60875.16;5013179;28;45340;-83
2022/03/12 02:08:53;;;;;;;;;6.50;4.25;;;;;-146.03;100.00;60875.16;5006848;28;45860;-82
2022/03/12 02:11:25;;;;;;;;;4.75;4.00;;;;;-146.03;100.00;60875.16;5004566;28;45681;-82
2022/03/12 02:14:16;;;;;;;;;5.25;5.25;;;;;-146.03;100.00;60875.16;5006885;28;45439;-82
2022/03/12 02:17:11;;;;;;;;;4.50;3.75;;;;;-146.03;100.00;60875.16;5010032;28;45607;-82
2022/03/12 02:19:39;;;;;;;;;5.00;5.00;;;;;-146.03;100.00;60875.16;4997371;28;45675;-83
2022/03/12 02:22:04;;;;;;;;;4.00;3.00;;;;;-146.03;100.00;60875.16;5006204;28;45505;-83
2022/03/12 02:24:32;;;;;;;;;7.75;5.75;;;;;-146.03;100.00;60875.16;5004378;28;45959;-83
2022/03/12 02:27:01;;;;;;;;;3.00;3.00;;;;;-146.03;100.00;60875.16;5009227;28;46529;-82
2022/03/12 02:29:27;;;;;;;;;6.25;6.25;;;;;-146.03;100.00;60875.16;5005754;28;45671;-83
2022/03/12 02:31:55;;;;;;;;;4.00;4.00;;;;;-146.03;100.00;60875.16;5010725;28;45504;-82
2022/03/12 02:34:23;;;;;;;;;3.75;3.75;;;;;-146.03;100.00;60875.16;5010353;28;45816;-82
2022/03/12 02:36:57;;;;;;;;;2.75;2.00;;;;;-146.03;100.00;60875.16;5011593;28;45422;-81
2022/03/12 02:39:25;;;;;;;;;4.00;3.00;;;;;-146.03;100.00;60875.16;5009518;28;47015;-82
2022/03/12 02:41:51;;;;;;;;;5.00;4.00;;;;;-146.03;100.00;60875.16;5006919;28;48847;-82
2022/03/12 02:44:22;;;;;;;;;5.00;4.00;;;;;-146.03;100.00;60875.16;5006865;28;45448;-82
2022/03/12 02:47:14;;;;;;;;;4.00;4.00;;;;;-146.03;100.00;60875.16;5007498;28;45596;-83
2022/03/12 02:49:58;;;;;;;;;7.00;5.00;;;;;-146.03;100.00;60875.16;5007478;28;45472;-82
2022/03/12 02:52:27;;;;;;;;;6.00;5.75;;;;;-146.03;100.00;60875.16;5004449;28;47422;-82
2022/03/12 02:54:54;;;;;;;;;6.50;6.50;;;;;-146.03;100.00;60875.16;5006886;28;45304;-82
2022/03/12 02:57:23;;;;;;;;;3.00;3.00;;;;;-146.03;100.00;60875.16;5009328;28;45539;-83
2022/03/12 02:59:50;;;;;;;;;7.25;5.75;;;;;-146.03;100.00;60875.16;5008691;28;45576;-82
2022/03/12 03:02:16;;;;;;;;;6.25;5.50;;;;;-146.03;100.00;60875.16;5011286;28;45497;-82
2022/03/12 03:04:41;;;;;;;;;6.25;5.00;;;;;-146.03;100.00;60875.16;5012847;28;45456;-82
2022/03/12 03:07:09;;;;;;;;;4.75;4.25;;;;;-146.03;100.00;60875.16;4995076;28;45438;-81
2022/03/12 03:09:35;;;;;;;;;3.50;3.25;;;;;-146.03;100.00;60875.16;5013085;28;45410;-82
2022/03/12 03:12:06;;;;;;;;;4.25;3.50;;;;;-146.03;100.00;60875.16;5008491;28;45470;-82
2022/03/12 03:14:32;;;;;;;;;4.25;4.00;;;;;-146.03;100.00;60875.16;5009582;28;45408;-82
2022/03/12 03:17:00;;;;;;;;;5.00;5.00;;;;;-146.03;100.00;60875.16;5010734;28;45545;-82
2022/03/12 03:19:26;;;;;;;;;4.25;4.25;;;;;-146.03;100.00;60875.16;5008376;28;46777;-82
2022/03/12 03:21:58;;;;;;;;;4.25;3.00;;;;;-146.03;100.00;60875.16;5010884;28;45639;-82
2022/03/12 03:24:25;;;;;;;;;3.25;2.75;;;;;-146.03;100.00;60875.16;5013598;28;45401;-81
2022/03/12 03:26:54;;;;;;;;;3.00;3.00;;;;;-146.03;100.00;60875.16;5014267;28;45616;-81
2022/03/12 03:29:20;;;;;;;;;3.00;3.00;;;;;-146.03;100.00;60875.16;5006105;28;45462;-82
2022/03/12 03:31:46;;;;;;;;;4.50;3.25;;;;;-146.03;100.00;60875.16;5011228;28;45386;-82
2022/03/12 03:34:12;;;;;;;;;2.75;2.00;;;;;-146.03;100.00;60875.16;5014920;28;45743;-82
2022/03/12 03:36:38;;;;;;;;;7.75;4.50;;;;;-146.03;100.00;60875.16;5013549;28;45472;-82
2022/03/12 03:39:04;;;;;;;;;4.00;3.25;;;;;-146.03;100.00;60875.16;5011066;28;45413;-81
2022/03/12 03:41:29;;;;;;;;;4.50;4.50;;;;;-146.03;100.00;60875.16;4990871;28;45521;-81
2022/03/12 03:43:55;;;;;;;;;4.00;4.00;;;;;-146.03;100.00;60875.16;5007871;28;45470;-82
2022/03/12 03:46:23;;;;;;;;;2.00;2.00;;;;;-146.03;100.00;60875.16;5011323;28;46292;-81
2022/03/12 03:48:51;;;;;;;;;2.75;2.50;;;;;-146.03;100.00;60875.16;5012290;28;46158;-82
2022/03/12 03:51:17;;;;;;;;;3.25;2.25;;;;;-146.03;100.00;60875.16;4985661;28;45457;-82
2022/03/12 03:53:42;;;;;;;;;3.25;3.25;;;;;-146.03;100.00;60875.16;5010296;28;48625;-82
2022/03/12 03:56:08;;;;;;;;;2.00;2.00;;;;;-146.03;100.00;60875.16;5012343;28;48574;-81
2022/03/12 03:58:34;;;;;;;;;4.00;4.00;;;;;-146.03;100.00;60875.16;5012615;28;45471;-83
2022/03/12 04:01:10;;;;;;;;;3.00;3.00;;;;;-146.03;100.00;60875.16;5010669;28;45375;-81
2022/03/12 04:03:37;;;;;;;;;2.50;1.75;;;;;-146.03;100.00;60875.16;4997572;28;45583;-82
2022/03/12 04:06:04;;;;;;;;;2.75;2.75;;;;;-146.03;100.00;60875.16;5012425;28;45660;-82
2022/03/12 04:08:31;;;;;;;;;3.25;3.25;;;;;-146.03;100.00;60875.16;5008051;28;45481;-82
2022/03/12 04:10:57;;;;;;;;;1.00;1.00;;;;;-146.03;100.00;60875.16;5010912;28;46172;-82
2022/03/12 04:13:23;;;;;;;;;2.50;2.50;;;;;-146.03;100.00;60875.16;5013420;28;48705;-81
2022/03/12 04:15:51;;;;;;;;;1.75;1.75;;;;;-146.03;100.00;60875.16;5013973;28;45289;-82
2022/03/12 04:18:18;;;;;;;;;2.75;2.00;;;;;-146.03;100.00;60875.16;5015723;28;45974;-82
2022/03/12 04:20:46;;;;;;;;;2.25;2.00;;;;;-146.03;100.00;60875.16;5016181;28;45327;-82
2022/03/12 04:23:16;;;;;;;;;4.25;1.75;;;;;-146.03;100.00;60875.16;5016038;28;45393;-82
2022/03/12 04:25:42;;;;;;;;;5.75;4.75;;;;;-146.03;100.00;60875.16;5017169;28;45403;-82
2022/03/12 04:28:09;;;;;;;;;3.00;3.00;;;;;-146.03;100.00;60875.16;5007388;28;45791;-82
2022/03/12 04:30:35;;;;;;;;;3.75;2.75;;;;;-146.03;100.00;60875.16;5004904;28;45487;-82
2022/03/12 04:33:00;;;;;;;;;3.75;3.00;;;;;-146.03;100.00;60875.16;5004871;28;45399;-82
2022/03/12 04:35:25;;;;;;;;;11.50;11.50;;;;;-146.03;100.00;60875.16;5000584;28;45395;-82
2022/03/12 04:37:52;;;;;;;;;4.25;3.00;;;;;-146.03;100.00;60875.16;5002417;28;45925;-82
2022/03/12 04:40:23;;;;;;;;;2.00;2.00;;;;;-146.03;100.00;60875.16;5004911;28;45465;-82
2022/03/12 04:42:49;;;;;;;;;6.00;3.75;;;;;-146.03;100.00;60875.16;5011482;28;45569;-83
2022/03/12 04:45:18;;;;;;;;;2.25;2.25;;;;;-146.03;100.00;60875.16;4993635;28;45623;-82
2022/03/12 04:47:45;;;;;;;;;4.00;2.75;;;;;-146.03;100.00;60875.16;4997184;28;47192;-83
2022/03/12 04:50:14;;;;;;;;;4.00;3.00;;;;;-146.03;100.00;60875.16;5000633;28;45629;-83
2022/03/12 04:52:45;;;;;;;;;4.00;4.00;;;;;-146.03;100.00;60875.16;5003412;28;45385;-83
2022/03/12 04:55:15;;;;;;;;;1.00;1.00;;;;;-146.03;100.00;60875.16;5018328;28;45404;-82
2022/03/12 04:57:40;;;;;;;;;0.75;0.75;;;;;-146.03;100.00;60875.16;4996901;28;47171;-83
2022/03/12 05:00:10;;;;;;;;;3.25;2.00;;;;;-146.03;100.00;60875.16;5015650;28;45616;-83
2022/03/12 05:02:35;;;;;;;;;4.25;2.50;;;;;-146.03;100.00;60875.16;5016112;28;45483;-81
2022/03/12 05:05:01;;;;;;;;;4.00;4.00;;;;;-146.03;100.00;60875.16;5016503;28;45425;-81
2022/03/12 05:07:26;;;;;;;;;2.25;2.25;;;;;-146.03;100.00;60875.16;5016024;28;45933;-82
2022/03/12 05:09:55;;;;;;;;;5.00;3.00;;;;;-146.03;100.00;60875.16;5015893;28;45535;-82
2022/03/12 05:12:26;;;;;;;;;3.00;3.00;;;;;-146.03;100.00;60875.16;4998335;28;45320;-81
2022/03/12 05:14:54;;;;;;;;;5.00;4.00;;;;;-146.03;100.00;60875.16;4997933;28;45388;-82
2022/03/12 05:17:23;;;;;;;;;2.75;2.75;;;;;-146.03;100.00;60875.16;5016235;28;46217;-82
2022/03/12 05:19:48;;;;;;;;;6.25;3.50;;;;;-146.03;100.00;60875.16;5016557;28;45303;-82
2022/03/12 05:22:14;;;;;;;;;4.00;3.50;;;;;-146.03;100.00;60875.16;5015997;28;45509;-82
2022/03/12 05:24:39;;;;;;;;;4.00;4.00;;;;;-146.03;100.00;60875.16;5015738;28;45339;-82
2022/03/12 05:27:06;;;;;;;;;7.00;4.00;;;;;-146.03;100.00;60875.16;5015598;28;46348;-81
2022/03/12 05:29:31;;;;;;;;;5.25;4.00;;;;;-146.03;100.00;60875.16;5015137;28;47867;-82
2022/03/12 05:31:57;;;;;;;;;6.75;4.25;;;;;-146.03;100.00;60875.16;4998506;28;45510;-82
2022/03/12 05:34:25;;;;;;;;;4.25;3.50;;;;;-146.03;100.00;60875.16;5015704;28;45291;-82
2022/03/12 05:36:51;;;;;;;;;5.50;4.00;;;;;-146.03;100.00;60875.16;4996372;28;47329;-82
2022/03/12 05:39:17;;;;;;;;;8.25;5.00;;;;;-146.03;100.00;60875.16;5015512;28;45525;-82
2022/03/12 05:41:44;;;;;;;;;6.25;5.00;;;;;-146.03;100.00;60875.16;5015976;28;45539;-82
2022/03/12 05:44:13;;;;;;;;;6.25;5.00;;;;;-146.03;100.00;60875.16;5015339;28;45271;-82
2022/03/12 05:46:39;;;;;;;;;6.00;5.50;;;;;-146.03;100.00;60875.16;5015676;28;46205;-82
2022/03/12 05:49:05;;;;;;;;;5.25;4.75;;;;;-146.03;100.00;60875.16;5015169;28;45754;-82
2022/03/12 05:51:31;;;;;;;;;3.75;3.75;;;;;-146.03;100.00;60875.16;5015469;28;45416;-82
2022/03/12 05:53:57;;;;;;;;;7.75;6.50;;;;;-146.03;100.00;60875.16;4996342;28;45524;-82
2022/03/12 05:56:22;;;;;;;;;4.00;4.00;;;;;-146.03;100.00;60875.16;5015300;28;46384;-82
2022/03/12 05:58:48;;;;;;;;;4.50;4.50;;;;;-146.03;100.00;60875.16;5015575;28;45395;-82
2022/03/12 06:01:13;;;;;;;;;5.50;4.50;;;;;-146.03;100.00;60875.16;4996154;28;45445;-81
2022/03/12 06:03:38;;;;;;;;;3.00;3.00;;;;;-146.03;100.00;60875.16;5015351;28;45366;-81
2022/03/12 06:06:04;;;;;;;;;5.00;5.00;;;;;-146.03;100.00;60875.16;5015056;28;45418;-81
2022/03/12 06:08:29;;;;;;;;;4.00;3.75;;;;;-146.03;100.00;60875.16;5015096;28;46001;-82
2022/03/12 06:10:56;;;;;;;;;7.00;5.00;;;;;-146.03;100.00;60875.16;5015572;28;45528;-81
2022/03/12 06:13:28;;;;;;;;;4.00;4.00;;;;;-146.03;100.00;60875.16;5014669;28;47856;-82
2022/03/12 06:16:02;;;;;;;;;5.25;4.00;;;;;-146.03;100.00;60875.16;5014845;28;46506;-82
2022/03/12 06:18:33;;;;;;;;;1.50;1.50;;;;;-146.03;100.00;60875.16;5015058;28;45414;-82
2022/03/12 06:20:58;;;;;;;;;2.00;2.00;;;;;-146.03;100.00;60875.16;5015217;28;45493;-82
2022/03/12 06:23:24;;;;;;;;;4.00;4.00;;;;;-146.03;100.00;60875.16;5015161;28;45612;-82
2022/03/12 06:25:51;;;;;;;;;3.50;3.50;;;;;-146.03;100.00;60875.16;5015464;28;45488;-82
2022/03/12 06:28:17;;;;;;;;;2.50;1.00;;;;;-146.03;100.00;60875.16;5014549;28;45423;-82
2022/03/12 06:30:42;;;;;;;;;2.00;2.00;;;;;-146.03;100.00;60875.16;5014801;28;45425;-82
2022/03/12 06:33:08;;;;;;;;;3.25;2.25;;;;;-146.03;100.00;60875.16;5014430;28;45461;-82
2022/03/12 06:35:34;;;;;;;;;4.00;1.00;;;;;-146.03;100.00;60875.16;5014818;28;45378;-82
2022/03/12 06:38:00;;;;;;;;;3.00;2.00;;;;;-146.03;100.00;60875.16;5015555;28;45362;-82
2022/03/12 06:40:28;;;;;;;;;4.00;2.75;;;;;-146.03;100.00;60875.16;5013654;28;45368;-81
2022/03/12 06:42:59;;;;;;;;;3.00;3.00;;;;;-146.03;100.00;60875.16;5012951;28;45532;-83
2022/03/12 06:45:25;;;;;;;;;4.00;3.50;;;;;-146.03;100.00;60875.16;4996528;28;48167;-82
2022/03/12 06:47:51;;;;;;;;;4.00;4.00;;;;;-146.03;100.00;60875.16;5014674;28;45423;-83
2022/03/12 06:50:19;;;;;;;;;3.25;3.25;;;;;-146.03;100.00;60875.16;5014784;28;45363;-83
2022/03/12 06:52:48;;;;;;;;;4.25;4.00;;;;;-146.03;100.00;60875.16;5014046;28;45955;-85
2022/03/12 06:55:14;;;;;;;;;4.25;3.75;;;;;-146.03;100.00;60875.16;5013814;28;45457;-82
2022/03/12 06:57:40;;;;;;;;;3.25;3.25;;;;;-146.03;100.00;60875.16;5013530;28;45460;-81
2022/03/12 07:00:12;;;;;;;;;5.75;4.00;;;;;-146.03;100.00;60875.16;5014106;28;45355;-81
2022/03/12 07:02:38;;;;;;;;;6.25;4.00;;;;;-146.03;100.00;60875.16;5013626;28;45442;-81
2022/03/12 07:05:04;;;;;;;;;3.00;3.00;;;;;-146.03;100.00;60875.16;5014774;28;45480;-82
2022/03/12 07:07:29;;;;;;;;;5.00;5.00;;;;;-146.03;100.00;60875.16;5014139;28;45434;-81
2022/03/12 07:09:54;;;;;;;;;5.00;4.75;;;;;-146.03;100.00;60875.16;5013666;28;45517;-82
2022/03/12 07:12:20;;;;;;;;;4.75;4.00;;;;;-146.03;100.00;60875.16;5012862;28;45438;-82
2022/03/12 07:14:45;;;;;;;;;4.00;3.00;;;;;-146.03;100.00;60875.16;5011846;28;46078;-82
2022/03/12 07:17:10;;;;;;;;;4.75;3.25;;;;;-146.03;100.00;60875.16;5013388;28;45506;-81
2022/03/12 07:19:36;;;;;;;;;6.00;3.75;;;;;-146.03;100.00;60875.16;5014317;28;45435;-87
2022/03/12 07:22:01;;;;;;;;;3.00;3.00;;;;;-146.03;100.00;60875.16;5013301;28;45549;-85
2022/03/12 07:24:27;;;;;;;;;2.00;2.00;;;;;-146.03;100.00;60875.16;5013050;28;45513;-88
2022/03/12 07:26:52;;;;;;;;;4.00;4.00;;;;;-146.03;100.00;60875.16;5013925;28;45359;-89
2022/03/12 07:29:17;;;;;;;;;4.50;3.25;;;;;-146.03;100.00;60875.16;4996490;28;45407;-90
2022/03/12 07:31:43;;;;;;;;;2.75;1.00;;;;;-146.03;100.00;60875.16;5013584;28;45372;-86
2022/03/12 07:34:08;;;;;;;;;3.00;3.00;;;;;-146.03;100.00;60875.16;5012707;28;45925;-88
2022/03/12 07:36:34;;;;;;;;;4.50;4.25;;;;;-146.03;100.00;60875.16;5013543;28;45459;-87
2022/03/12 07:39:02;;;;;;;;;3.50;3.50;;;;;-146.03;100.00;60875.16;5013805;28;45698;-87
2022/03/12 07:41:31;;;;;;;;;4.75;3.00;;;;;-146.03;100.00;60875.16;4995832;28;45430;-89
2022/03/12 07:43:57;;;;;;;;;3.00;3.00;;;;;-146.03;100.00;60875.16;5014061;28;45406;-85
2022/03/12 07:46:23;;;;;;;;;3.25;3.25;;;;;-146.03;100.00;60875.16;5012010;28;45563;-87
2022/03/12 07:48:49;;;;;;;;;4.25;3.00;;;;;-146.03;100.00;60875.16;5012972;28;45476;-87
2022/03/12 07:51:15;;;;;;;;;3.00;3.00;;;;;-146.03;100.00;60875.16;5013386;28;45442;-86
2022/03/12 07:53:42;;;;;;;;;3.00;3.00;;;;;-146.03;100.00;60875.16;5016530;28;46342;-86
2022/03/12 07:56:08;;;;;;;;;5.00;4.00;;;;;-146.03;100.00;60875.16;5016829;28;45462;-85
2022/03/12 07:58:35;;;;;;;;;4.00;4.00;;;;;-146.03;100.00;60875.16;5016144;28;45479;-85
2022/03/12 08:01:03;;;;;;;;;2.00;2.00;;;;;-146.03;100.00;60875.16;5015338;28;45501;-86
2022/03/12 08:03:29;;;;;;;;;4.75;4.00;;;;;-146.03;100.00;60875.16;5016164;28;45692;-86
2022/03/12 08:05:54;;;;;;;;;3.00;3.00;;;;;-146.03;100.00;60875.16;5016505;28;45560;-86
2022/03/12 08:08:20;;;;;;;;;3.00;3.00;;;;;-146.03;100.00;60875.16;5014829;28;45477;-85
2022/03/12 08:13:30;;;;;;;;;5.50;4.00;;;;;-146.03;100.00;60875.16;5016584;28;45483;-84
2022/03/12 08:15:56;;;;;;;;;4.00;4.00;;;;;-146.03;100.00;60875.16;5002429;28;45628;-84
2022/03/12 08:18:22;;;;;;;;;5.25;5.25;;;;;-146.03;100.00;60875.16;4998232;28;45594;-83
2022/03/12 08:20:48;;;;;;;;;3.25;3.25;;;;;-146.03;100.00;60875.16;5015907;28;45450;-83
2022/03/12 08:23:14;;;;;;;;;2.25;2.25;;;;;-146.03;100.00;60875.16;5015124;28;45509;-87
2022/03/12 08:25:39;;;;;;;;;4.75;4.00;;;;;-146.03;100.00;60875.16;5015537;28;45583;-90
2022/03/12 08:28:11;;;;;;;;;4.25;4.25;;;;;-146.03;100.00;60875.16;5015939;28;45470;-91
2022/03/12 08:30:39;;;;;;;;;4.00;3.00;;;;;-146.03;100.00;60875.16;4998725;28;45300;-90
2022/03/12 08:33:04;;;;;;;;;3.75;3.75;;;;;-146.03;100.00;60875.16;5016425;28;46402;-85
2022/03/12 08:35:30;;;;;;;;;3.50;3.50;;;;;-146.03;100.00;60875.16;5018769;28;45726;-90
2022/03/12 08:37:55;;;;;;;;;2.25;2.25;;;;;-146.03;100.00;60875.16;5017691;28;45700;-89
2022/03/12 08:40:23;;;;;;;;;5.50;5.00;;;;;-146.03;100.00;60875.16;5016064;28;49186;-87
2022/03/12 08:42:49;;;;;;;;;5.00;3.00;;;;;-146.03;100.00;60875.16;4997983;28;48601;-90
2022/03/12 08:45:14;;;;;;;;;6.00;5.00;;;;;-146.03;100.00;60875.16;5013720;28;45505;-85
2022/03/12 08:47:41;;;;;;;;;3.00;3.00;;;;;-146.03;100.00;60875.16;5015212;28;45616;-88
2022/03/12 08:50:08;;;;;;;;;9.00;4.00;;;;;-146.03;100.00;60875.16;5012222;28;45493;-89
2022/03/12 08:52:35;;;;;;;;;5.00;3.00;;;;;-146.03;100.00;60875.16;5013850;28;45609;-88
2022/03/12 08:55:01;;;;;;;;;3.00;3.00;;;;;-146.03;100.00;60875.16;5013422;28;45511;-88
2022/03/12 08:57:26;;;;;;;;;3.25;3.25;;;;;-146.03;100.00;60875.16;4994196;28;45532;-90
2022/03/12 08:59:52;;;;;;;;;4.75;3.75;;;;;-146.03;100.00;60875.16;4997802;28;45458;-89
2022/03/12 09:02:17;;;;;;;;;6.00;5.50;;;;;-146.03;100.00;60875.16;4997692;28;48125;-88
2022/03/12 09:04:43;;;;;;;;;3.00;3.00;;;;;-146.03;100.00;60875.16;5014646;28;45303;-89
2022/03/12 09:07:08;;;;;;;;;2.75;2.75;;;;;-146.03;100.00;60875.16;5015932;28;45393;-90
2022/03/12 09:09:34;;;;;;;;;3.00;3.00;;;;;-146.03;100.00;60875.16;5015861;28;45738;-90
2022/03/12 09:12:00;;;;;;;;;3.25;3.00;;;;;-146.03;100.00;60875.16;5014691;28;45732;-90
2022/03/12 09:14:27;;;;;;;;;4.00;4.00;;;;;-146.03;100.00;60875.16;4997058;28;45703;-91
2022/03/12 09:16:53;;;;;;;;;3.00;3.00;;;;;-146.03;100.00;60875.16;4997360;28;45473;-90
2022/03/12 09:19:18;;;;;;;;;3.00;3.00;;;;;-146.03;100.00;60875.16;5015760;28;45623;-90
2022/03/12 09:21:44;;;;;;;;;5.00;5.00;;;;;-146.03;100.00;60875.16;4995774;28;45995;-91
2022/03/12 09:24:11;;;;;;;;;7.00;6.25;;;;;-146.03;100.00;60875.16;4995987;28;45521;-92
2022/03/12 09:26:37;;;;;;;;;3.50;3.00;;;;;-146.03;100.00;60875.16;4997125;28;46036;-90
2022/03/12 09:29:03;;;;;;;;;2.75;2.75;;;;;-146.03;100.00;60875.16;4997371;28;45426;-89
2022/03/12 09:31:29;;;;;;;;;4.25;3.50;;;;;-146.03;100.00;60875.16;5014771;28;45459;-91
2022/03/12 09:33:54;;;;;;;;;3.00;2.00;;;;;-146.03;100.00;60875.16;4997348;28;46863;-90
2022/03/12 09:36:20;;;;;;;;;3.50;3.50;;;;;-146.03;100.00;60875.16;4998246;28;45608;-89
2022/03/12 09:38:45;;;;;;;;;2.75;2.75;;;;;-146.03;100.00;60875.16;5015099;28;45442;-90
2022/03/12 09:41:11;;;;;;;;;4.25;3.00;;;;;-146.03;100.00;60875.16;5015816;28;46254;-90
2022/03/12 09:43:36;;;;;;;;;3.00;3.00;;;;;-146.03;100.00;60875.16;5015555;28;45395;-91
2022/03/12 09:46:02;;;;;;;;;5.00;4.00;;;;;-146.03;100.00;60875.16;5014561;28;45497;-90
2022/03/12 09:48:28;;;;;;;;;4.00;4.00;;;;;-146.03;100.00;60875.16;4996663;28;45517;-90
2022/03/12 09:50:54;;;;;;;;;3.75;3.75;;;;;-146.03;100.00;60875.16;5014426;28;45781;-90
2022/03/12 09:53:19;;;;;;;;;6.25;4.00;;;;;-146.03;100.00;60875.16;4997056;28;45560;-90
2022/03/12 09:55:45;;;;;;;;;5.00;5.00;;;;;-146.03;100.00;60875.16;4997624;28;45598;-90
2022/03/12 09:58:10;;;;;;;;;4.25;3.25;;;;;-146.03;100.00;60875.16;5014763;28;45260;-89
2022/03/12 10:00:36;;;;;;;;;5.00;5.00;;;;;-146.03;100.00;60875.16;4996249;28;48059;-90
2022/03/12 10:03:01;;;;;;;;;4.75;4.75;;;;;-146.03;100.00;60875.16;4994085;28;45583;-90
2022/03/12 10:05:27;;;;;;;;;4.75;4.75;;;;;-146.03;100.00;60875.16;5014427;28;45458;-90
2022/03/12 10:07:53;;;;;;;;;4.50;4.50;;;;;-146.03;100.00;60875.16;5015385;28;45408;-89
2022/03/12 10:10:22;;;;;;;;;4.00;4.00;;;;;-146.03;100.00;60875.16;5014824;28;46173;-90
2022/03/12 10:12:57;;;;;;;;;5.25;5.25;;;;;-146.03;100.00;60875.16;5014006;28;45356;-93
2022/03/12 10:15:22;;;;;;;;;5.25;5.25;;;;;-146.03;100.00;60875.16;5014377;28;45437;-90
2022/03/12 10:17:48;;;;;;;;;5.25;4.50;;;;;-146.03;100.00;60875.16;4995832;28;45519;-89
2022/03/12 10:20:15;;;;;;;;;4.25;4.25;;;;;-146.03;100.00;60875.16;4996706;28;48140;-89
2022/03/12 10:22:42;;;;;;;;;4.25;4.00;;;;;-146.03;100.00;60875.16;5015035;28;45477;-89
2022/03/12 10:25:09;;;;;;;;;7.25;6.25;;;;;-146.03;100.00;60875.16;5014845;28;45723;-90
2022/03/12 10:27:35;;;;;;;;;6.75;5.00;;;;;-146.03;100.00;60875.16;5014376;28;45537;-91
2022/03/12 10:30:02;;;;;;;;;4.50;4.50;;;;;-146.03;100.00;60875.16;5013375;28;45523;-89
2022/03/12 10:32:34;;;;;;;;;7.00;7.00;;;;;-146.03;100.00;60875.16;5014582;28;45414;-89
2022/03/12 10:35:03;;;;;;;;;6.50;6.25;;;;;-146.03;100.00;60875.16;5013960;28;45477;-89
2022/03/12 10:37:31;;;;;;;;;6.25;6.00;;;;;-146.03;100.00;60875.16;5013665;28;45315;-89
2022/03/12 10:40:15;;;;;;;;;6.00;5.50;;;;;-146.03;100.00;60875.16;5013421;28;46583;-89
2022/03/12 10:42:46;;;;;;;;;9.50;9.50;;;;;-146.03;100.00;60875.16;4996230;28;46049;-89
2022/03/12 10:45:15;;;;;;;;;6.50;6.00;;;;;-146.03;100.00;60875.16;5014291;28;46799;-88
2022/03/12 10:47:49;;;;;;;;;6.00;6.00;;;;;-146.03;100.00;60875.16;5014553;28;45553;-90
2022/03/12 10:50:15;;;;;;;;;8.00;5.00;;;;;-146.03;100.00;60875.16;4997054;28;48169;-89
2022/03/12 10:52:46;;;;;;;;;6.25;4.75;;;;;-146.03;100.00;60875.16;5014961;28;45248;-89
2022/03/12 10:55:18;;;;;;;;;4.25;4.25;;;;;-146.03;100.00;60875.16;4995802;28;45512;-89
2022/03/12 10:58:13;;;;;;;;;7.00;7.00;;;;;-146.03;100.00;60875.16;5008203;28;45420;-89
2022/03/12 11:00:46;;;;;;;;;6.00;5.00;;;;;-146.03;100.00;60875.16;5013885;28;45542;-88
2022/03/12 11:03:20;;;;;;;;;5.00;4.00;;;;;-146.03;100.00;60875.16;5013990;28;45431;-88
2022/03/12 11:05:47;;;;;;;;;5.00;5.00;;;;;-146.03;100.00;60875.16;5014356;28;45475;-89
2022/03/12 11:08:18;;;;;;;;;4.00;4.00;;;;;-146.03;100.00;60875.16;5013950;28;45488;-88
2022/03/12 11:11:16;;;;;;;;;6.00;6.00;;;;;-146.03;100.00;60875.16;4994988;28;47365;-88
2022/03/12 11:13:50;;;;;;;;;5.50;5.50;;;;;-146.03;100.00;60875.16;5012771;28;45339;-88